sensor_id;sensor_type;location;lat;lon;timestamp;pressure;altitude;pressure_sealevel;temperature;humidity
57050;BME280;42935;50.966;16.992;2023-07-28T00:02:06;100530.04;;;15.03;100.00
57050;BME280;42935;50.966;16.992;2023-07-28T00:05:28;100539.19;;;15.06;100.00
57050;BME280;42935;50.966;16.992;2023-07-28T00:08:58;100532.52;;;15.12;100.00
57050;BME280;42935;50.966;16.992;2023-07-28T00:12:19;100515.80;;;14.97;100.00
57050;BME280;42935;50.966;16.992;2023-07-28T00:15:36;100530.50;;;15.15;100.00
57050;BME280;42935;50.966;16.992;2023-07-28T00:18:56;100525.63;;;15.11;100.00
57050;BME280;42935;50.966;16.992;2023-07-28T00:22:14;100525.41;;;15.09;100.00
57050;BME280;42935;50.966;16.992;2023-07-28T00:25:36;100521.54;;;15.07;100.00
57050;BME280;42935;50.966;16.992;2023-07-28T00:28:54;100517.45;;;15.05;100.00
57050;BME280;42935;50.966;16.992;2023-07-28T00:32:24;100517.53;;;15.10;100.00
57050;BME280;42935;50.966;16.992;2023-07-28T00:35:50;100505.41;;;15.11;100.00
57050;BME280;42935;50.966;16.992;2023-07-28T00:39:10;100498.05;;;15.17;100.00
57050;BME280;42935;50.966;16.992;2023-07-28T00:42:30;100509.70;;;15.23;100.00
57050;BME280;42935;50.966;16.992;2023-07-28T00:45:49;100505.08;;;15.27;100.00
57050;BME280;42935;50.966;16.992;2023-07-28T00:49:09;100507.18;;;15.37;100.00
57050;BME280;42935;50.966;16.992;2023-07-28T00:52:29;100500.03;;;15.36;100.00
57050;BME280;42935;50.966;16.992;2023-07-28T00:55:51;100494.74;;;15.39;100.00
57050;BME280;42935;50.966;16.992;2023-07-28T00:59:11;100499.13;;;15.50;100.00
57050;BME280;42935;50.966;16.992;2023-07-28T01:02:28;100478.10;;;15.37;100.00
57050;BME280;42935;50.966;16.992;2023-07-28T01:09:24;100495.23;;;15.53;100.00
57050;BME280;42935;50.966;16.992;2023-07-28T01:12:43;100488.31;;;15.54;100.00
57050;BME280;42935;50.966;16.992;2023-07-28T01:16:06;100469.60;;;15.52;100.00
57050;BME280;42935;50.966;16.992;2023-07-28T01:19:27;100472.20;;;15.57;100.00
57050;BME280;42935;50.966;16.992;2023-07-28T01:23:05;100474.27;;;15.64;100.00
57050;BME280;42935;50.966;16.992;2023-07-28T01:29:53;100469.02;;;15.65;100.00
57050;BME280;42935;50.966;16.992;2023-07-28T01:33:11;100473.62;;;15.70;100.00
57050;BME280;42935;50.966;16.992;2023-07-28T01:36:31;100469.62;;;15.69;100.00
57050;BME280;42935;50.966;16.992;2023-07-28T01:39:53;100463.65;;;15.73;100.00
57050;BME280;42935;50.966;16.992;2023-07-28T01:43:13;100451.98;;;15.67;100.00
57050;BME280;42935;50.966;16.992;2023-07-28T01:46:29;100457.54;;;15.72;100.00
57050;BME280;42935;50.966;16.992;2023-07-28T01:49:51;100442.78;;;15.59;100.00
57050;BME280;42935;50.966;16.992;2023-07-28T01:53:15;100440.77;;;15.60;100.00
57050;BME280;42935;50.966;16.992;2023-07-28T01:56:32;100450.15;;;15.67;100.00
57050;BME280;42935;50.966;16.992;2023-07-28T01:59:53;100436.52;;;15.65;100.00
57050;BME280;42935;50.966;16.992;2023-07-28T02:03:10;100432.00;;;15.68;100.00
57050;BME280;42935;50.966;16.992;2023-07-28T02:06:29;100438.20;;;15.74;100.00
57050;BME280;42935;50.966;16.992;2023-07-28T02:09:48;100430.59;;;15.70;100.00
57050;BME280;42935;50.966;16.992;2023-07-28T02:13:08;100440.21;;;15.79;100.00
57050;BME280;42935;50.966;16.992;2023-07-28T02:16:33;100442.56;;;15.84;100.00
57050;BME280;42935;50.966;16.992;2023-07-28T02:19:53;100430.91;;;15.77;100.00
57050;BME280;42935;50.966;16.992;2023-07-28T02:23:14;100435.70;;;15.84;100.00
57050;BME280;42935;50.966;16.992;2023-07-28T02:26:35;100440.84;;;15.91;100.00
57050;BME280;42935;50.966;16.992;2023-07-28T02:29:55;100434.60;;;15.92;100.00
57050;BME280;42935;50.966;16.992;2023-07-28T02:33:16;100432.48;;;15.94;100.00
57050;BME280;42935;50.966;16.992;2023-07-28T02:36:33;100430.62;;;15.86;100.00
57050;BME280;42935;50.966;16.992;2023-07-28T02:39:53;100433.48;;;15.87;100.00
57050;BME280;42935;50.966;16.992;2023-07-28T02:43:13;100434.05;;;15.73;100.00
57050;BME280;42935;50.966;16.992;2023-07-28T02:46:38;100437.98;;;15.81;100.00
57050;BME280;42935;50.966;16.992;2023-07-28T02:49:57;100421.68;;;15.81;100.00
57050;BME280;42935;50.966;16.992;2023-07-28T02:53:15;100427.59;;;15.86;100.00
57050;BME280;42935;50.966;16.992;2023-07-28T02:56:36;100411.74;;;15.79;100.00
57050;BME280;42935;50.966;16.992;2023-07-28T02:59:55;100423.08;;;15.81;100.00
57050;BME280;42935;50.966;16.992;2023-07-28T03:03:13;100410.27;;;15.76;100.00
57050;BME280;42935;50.966;16.992;2023-07-28T03:06:33;100402.43;;;15.66;100.00
57050;BME280;42935;50.966;16.992;2023-07-28T03:09:53;100423.37;;;15.84;100.00
57050;BME280;42935;50.966;16.992;2023-07-28T03:13:10;100437.55;;;15.91;100.00
57050;BME280;42935;50.966;16.992;2023-07-28T03:16:29;100432.63;;;15.85;100.00
57050;BME280;42935;50.966;16.992;2023-07-28T03:19:53;100425.95;;;15.83;100.00
57050;BME280;42935;50.966;16.992;2023-07-28T03:23:12;100440.87;;;15.91;100.00
57050;BME280;42935;50.966;16.992;2023-07-28T03:26:33;100439.25;;;15.90;100.00
57050;BME280;42935;50.966;16.992;2023-07-28T03:29:51;100449.63;;;15.99;100.00
57050;BME280;42935;50.966;16.992;2023-07-28T03:33:11;100428.69;;;15.90;100.00
57050;BME280;42935;50.966;16.992;2023-07-28T03:36:29;100439.95;;;15.98;100.00
57050;BME280;42935;50.966;16.992;2023-07-28T03:39:48;100430.20;;;16.09;100.00
57050;BME280;42935;50.966;16.992;2023-07-28T03:43:12;100435.38;;;16.23;100.00
57050;BME280;42935;50.966;16.992;2023-07-28T03:46:30;100415.33;;;16.14;100.00
57050;BME280;42935;50.966;16.992;2023-07-28T03:49:50;100432.90;;;16.23;100.00
57050;BME280;42935;50.966;16.992;2023-07-28T03:53:12;100429.91;;;16.26;100.00
57050;BME280;42935;50.966;16.992;2023-07-28T03:56:32;100424.12;;;16.22;100.00
57050;BME280;42935;50.966;16.992;2023-07-28T03:59:52;100435.05;;;16.25;100.00
57050;BME280;42935;50.966;16.992;2023-07-28T04:03:14;100423.16;;;16.21;100.00
57050;BME280;42935;50.966;16.992;2023-07-28T04:06:46;100427.58;;;16.32;100.00
57050;BME280;42935;50.966;16.992;2023-07-28T04:10:08;100405.01;;;16.20;100.00
57050;BME280;42935;50.966;16.992;2023-07-28T04:13:28;100425.30;;;16.41;100.00
57050;BME280;42935;50.966;16.992;2023-07-28T04:16:45;100419.73;;;16.69;100.00
57050;BME280;42935;50.966;16.992;2023-07-28T04:20:04;100415.68;;;16.76;100.00
57050;BME280;42935;50.966;16.992;2023-07-28T04:23:20;100399.37;;;16.64;100.00
57050;BME280;42935;50.966;16.992;2023-07-28T04:26:40;100411.06;;;16.72;100.00
57050;BME280;42935;50.966;16.992;2023-07-28T04:30:00;100389.31;;;16.52;100.00
57050;BME280;42935;50.966;16.992;2023-07-28T04:33:26;100383.14;;;16.58;100.00
57050;BME280;42935;50.966;16.992;2023-07-28T04:36:44;100399.99;;;16.62;100.00
57050;BME280;42935;50.966;16.992;2023-07-28T04:40:05;100400.95;;;16.59;100.00
57050;BME280;42935;50.966;16.992;2023-07-28T04:43:28;100404.10;;;16.57;100.00
57050;BME280;42935;50.966;16.992;2023-07-28T04:46:45;100391.84;;;16.49;100.00
57050;BME280;42935;50.966;16.992;2023-07-28T04:50:05;100401.54;;;16.70;100.00
57050;BME280;42935;50.966;16.992;2023-07-28T04:53:23;100397.13;;;16.52;100.00
57050;BME280;42935;50.966;16.992;2023-07-28T04:56:44;100391.73;;;16.54;100.00
57050;BME280;42935;50.966;16.992;2023-07-28T05:00:06;100412.13;;;16.69;100.00
57050;BME280;42935;50.966;16.992;2023-07-28T05:03:25;100408.62;;;16.63;100.00
57050;BME280;42935;50.966;16.992;2023-07-28T05:06:45;100406.44;;;16.55;100.00
57050;BME280;42935;50.966;16.992;2023-07-28T05:10:04;100414.84;;;16.61;100.00
57050;BME280;42935;50.966;16.992;2023-07-28T05:13:24;100408.27;;;16.61;100.00
57050;BME280;42935;50.966;16.992;2023-07-28T05:16:45;100420.89;;;16.68;100.00
57050;BME280;42935;50.966;16.992;2023-07-28T05:20:07;100417.72;;;16.66;100.00
57050;BME280;42935;50.966;16.992;2023-07-28T05:23:27;100412.40;;;16.55;100.00
57050;BME280;42935;50.966;16.992;2023-07-28T05:26:46;100421.83;;;16.62;100.00
57050;BME280;42935;50.966;16.992;2023-07-28T05:30:07;100408.65;;;16.66;100.00
57050;BME280;42935;50.966;16.992;2023-07-28T05:33:31;100415.19;;;16.81;100.00
57050;BME280;42935;50.966;16.992;2023-07-28T05:36:51;100409.98;;;16.92;100.00
57050;BME280;42935;50.966;16.992;2023-07-28T05:40:13;100392.42;;;16.80;100.00
57050;BME280;42935;50.966;16.992;2023-07-28T05:43:31;100406.52;;;16.90;100.00
57050;BME280;42935;50.966;16.992;2023-07-28T05:46:52;100406.52;;;16.92;100.00
57050;BME280;42935;50.966;16.992;2023-07-28T05:50:12;100412.25;;;16.97;100.00
57050;BME280;42935;50.966;16.992;2023-07-28T05:53:32;100411.80;;;16.98;100.00
57050;BME280;42935;50.966;16.992;2023-07-28T05:56:47;100418.97;;;17.03;100.00
57050;BME280;42935;50.966;16.992;2023-07-28T06:00:09;100405.20;;;16.83;100.00
57050;BME280;42935;50.966;16.992;2023-07-28T06:03:30;100420.73;;;16.84;100.00
57050;BME280;42935;50.966;16.992;2023-07-28T06:06:52;100421.33;;;16.94;100.00
57050;BME280;42935;50.966;16.992;2023-07-28T06:10:12;100415.01;;;17.07;100.00
57050;BME280;42935;50.966;16.992;2023-07-28T06:13:30;100403.76;;;17.26;100.00
57050;BME280;42935;50.966;16.992;2023-07-28T06:16:48;100390.69;;;17.29;100.00
57050;BME280;42935;50.966;16.992;2023-07-28T06:20:09;100409.33;;;17.56;100.00
57050;BME280;42935;50.966;16.992;2023-07-28T06:23:31;100410.56;;;17.60;100.00
57050;BME280;42935;50.966;16.992;2023-07-28T06:26:52;100415.05;;;17.80;100.00
57050;BME280;42935;50.966;16.992;2023-07-28T06:30:08;100410.27;;;17.86;100.00
57050;BME280;42935;50.966;16.992;2023-07-28T06:33:29;100417.98;;;17.88;100.00
57050;BME280;42935;50.966;16.992;2023-07-28T06:36:50;100424.91;;;17.91;100.00
57050;BME280;42935;50.966;16.992;2023-07-28T06:40:11;100430.98;;;17.95;100.00
57050;BME280;42935;50.966;16.992;2023-07-28T06:43:31;100436.17;;;18.01;100.00
57050;BME280;42935;50.966;16.992;2023-07-28T06:46:50;100430.63;;;18.06;100.00
57050;BME280;42935;50.966;16.992;2023-07-28T06:50:11;100414.94;;;18.11;100.00
57050;BME280;42935;50.966;16.992;2023-07-28T06:53:32;100425.55;;;18.41;100.00
57050;BME280;42935;50.966;16.992;2023-07-28T06:56:58;100423.62;;;18.39;100.00
57050;BME280;42935;50.966;16.992;2023-07-28T07:00:17;100429.09;;;18.46;100.00
57050;BME280;42935;50.966;16.992;2023-07-28T07:03:42;100430.20;;;18.40;100.00
57050;BME280;42935;50.966;16.992;2023-07-28T07:07:07;100430.65;;;18.29;100.00
57050;BME280;42935;50.966;16.992;2023-07-28T07:10:27;100432.89;;;18.21;100.00
57050;BME280;42935;50.966;16.992;2023-07-28T07:13:49;100442.83;;;18.28;100.00
57050;BME280;42935;50.966;16.992;2023-07-28T07:17:09;100434.72;;;18.25;100.00
57050;BME280;42935;50.966;16.992;2023-07-28T07:20:26;100435.83;;;18.29;100.00
57050;BME280;42935;50.966;16.992;2023-07-28T07:23:48;100441.77;;;18.49;100.00
57050;BME280;42935;50.966;16.992;2023-07-28T07:27:05;100442.81;;;18.51;100.00
57050;BME280;42935;50.966;16.992;2023-07-28T07:30:24;100426.39;;;18.49;100.00
57050;BME280;42935;50.966;16.992;2023-07-28T07:33:42;100445.77;;;18.63;100.00
57050;BME280;42935;50.966;16.992;2023-07-28T07:37:02;100455.35;;;18.74;100.00
57050;BME280;42935;50.966;16.992;2023-07-28T07:40:21;100454.96;;;18.81;100.00
57050;BME280;42935;50.966;16.992;2023-07-28T07:43:42;100455.16;;;18.85;100.00
57050;BME280;42935;50.966;16.992;2023-07-28T07:47:01;100460.41;;;18.86;100.00
57050;BME280;42935;50.966;16.992;2023-07-28T07:50:24;100465.81;;;19.04;100.00
57050;BME280;42935;50.966;16.992;2023-07-28T07:53:44;100461.95;;;19.17;100.00
57050;BME280;42935;50.966;16.992;2023-07-28T07:56:59;100466.51;;;19.36;100.00
57050;BME280;42935;50.966;16.992;2023-07-28T08:00:16;100455.44;;;19.53;100.00
57050;BME280;42935;50.966;16.992;2023-07-28T08:03:32;100465.78;;;19.56;100.00
57050;BME280;42935;50.966;16.992;2023-07-28T08:06:50;100462.98;;;19.55;100.00
57050;BME280;42935;50.966;16.992;2023-07-28T08:10:13;100455.71;;;19.51;100.00
57050;BME280;42935;50.966;16.992;2023-07-28T08:13:34;100459.16;;;19.73;100.00
57050;BME280;42935;50.966;16.992;2023-07-28T08:16:51;100454.55;;;19.77;100.00
57050;BME280;42935;50.966;16.992;2023-07-28T08:20:09;100459.52;;;19.90;100.00
57050;BME280;42935;50.966;16.992;2023-07-28T08:23:25;100405.68;;;19.48;100.00
57050;BME280;42935;50.966;16.992;2023-07-28T08:26:43;100465.92;;;19.64;100.00
57050;BME280;42935;50.966;16.992;2023-07-28T08:30:00;100467.42;;;19.61;100.00
57050;BME280;42935;50.966;16.992;2023-07-28T08:33:27;100471.90;;;19.66;100.00
57050;BME280;42935;50.966;16.992;2023-07-28T08:36:52;100468.32;;;19.58;100.00
57050;BME280;42935;50.966;16.992;2023-07-28T08:40:12;100484.76;;;19.64;100.00
57050;BME280;42935;50.966;16.992;2023-07-28T08:43:34;100482.89;;;19.59;100.00
57050;BME280;42935;50.966;16.992;2023-07-28T08:46:50;100470.99;;;19.65;100.00
57050;BME280;42935;50.966;16.992;2023-07-28T08:50:08;100482.11;;;19.72;100.00
57050;BME280;42935;50.966;16.992;2023-07-28T08:53:28;100481.42;;;19.84;100.00
57050;BME280;42935;50.966;16.992;2023-07-28T08:56:45;100489.62;;;19.97;100.00
57050;BME280;42935;50.966;16.992;2023-07-28T09:00:09;100477.87;;;20.26;100.00
57050;BME280;42935;50.966;16.992;2023-07-28T09:03:30;100479.55;;;20.58;100.00
57050;BME280;42935;50.966;16.992;2023-07-28T09:06:49;100478.57;;;20.87;100.00
57050;BME280;42935;50.966;16.992;2023-07-28T09:10:09;100465.77;;;21.39;100.00
57050;BME280;42935;50.966;16.992;2023-07-28T09:13:36;100455.02;;;21.80;95.12
57050;BME280;42935;50.966;16.992;2023-07-28T09:17:08;100466.82;;;22.05;96.48
57050;BME280;42935;50.966;16.992;2023-07-28T09:20:34;100471.43;;;21.97;93.35
57050;BME280;42935;50.966;16.992;2023-07-28T09:23:55;100476.23;;;21.20;96.64
57050;BME280;42935;50.966;16.992;2023-07-28T09:27:24;100481.64;;;21.30;96.83
57050;BME280;42935;50.966;16.992;2023-07-28T09:30:49;100480.24;;;21.65;97.08
57050;BME280;42935;50.966;16.992;2023-07-28T09:34:10;100483.50;;;21.44;94.45
57050;BME280;42935;50.966;16.992;2023-07-28T09:37:31;100473.70;;;21.47;93.53
57050;BME280;42935;50.966;16.992;2023-07-28T09:40:49;100473.24;;;21.90;91.99
57050;BME280;42935;50.966;16.992;2023-07-28T09:44:06;100477.00;;;22.11;85.70
57050;BME280;42935;50.966;16.992;2023-07-28T09:47:26;100475.61;;;21.66;86.48
57050;BME280;42935;50.966;16.992;2023-07-28T09:50:47;100466.70;;;21.64;89.38
57050;BME280;42935;50.966;16.992;2023-07-28T09:54:08;100472.73;;;21.85;89.02
57050;BME280;42935;50.966;16.992;2023-07-28T09:57:28;100461.57;;;22.40;84.31
57050;BME280;42935;50.966;16.992;2023-07-28T10:00:45;100451.30;;;22.85;84.51
57050;BME280;42935;50.966;16.992;2023-07-28T10:04:06;100452.50;;;23.14;82.01
57050;BME280;42935;50.966;16.992;2023-07-28T10:07:27;100440.39;;;23.26;79.08
57050;BME280;42935;50.966;16.992;2023-07-28T10:10:48;100450.41;;;23.16;77.32
57050;BME280;42935;50.966;16.992;2023-07-28T10:17:46;100441.59;;;22.58;79.43
57050;BME280;42935;50.966;16.992;2023-07-28T10:21:09;100458.34;;;22.59;78.30
57050;BME280;42935;50.966;16.992;2023-07-28T10:27:57;100458.88;;;23.10;75.66
57050;BME280;42935;50.966;16.992;2023-07-28T10:31:21;100458.07;;;23.12;75.57
57050;BME280;42935;50.966;16.992;2023-07-28T10:45:17;100472.77;;;23.23;72.86
57050;BME280;42935;50.966;16.992;2023-07-28T10:48:45;100466.27;;;23.50;72.57
57050;BME280;42935;50.966;16.992;2023-07-28T10:52:05;100464.94;;;23.65;73.67
57050;BME280;42935;50.966;16.992;2023-07-28T10:55:24;100460.02;;;23.86;73.28
57050;BME280;42935;50.966;16.992;2023-07-28T10:58:45;100451.90;;;23.68;71.40
57050;BME280;42935;50.966;16.992;2023-07-28T11:02:05;100460.26;;;23.47;72.10
57050;BME280;42935;50.966;16.992;2023-07-28T11:05:27;100451.76;;;23.65;72.28
57050;BME280;42935;50.966;16.992;2023-07-28T11:08:48;100463.03;;;23.37;70.62
57050;BME280;42935;50.966;16.992;2023-07-28T11:12:09;100453.87;;;23.58;71.76
57050;BME280;42935;50.966;16.992;2023-07-28T11:15:32;100440.28;;;23.94;68.70
57050;BME280;42935;50.966;16.992;2023-07-28T11:19:01;100447.29;;;24.28;69.51
57050;BME280;42935;50.966;16.992;2023-07-28T11:22:23;100434.52;;;24.29;68.09
57050;BME280;42935;50.966;16.992;2023-07-28T11:25:47;100429.13;;;24.53;64.95
57050;BME280;42935;50.966;16.992;2023-07-28T11:29:07;100434.34;;;24.67;65.81
57050;BME280;42935;50.966;16.992;2023-07-28T11:32:31;100436.60;;;24.34;64.74
57050;BME280;42935;50.966;16.992;2023-07-28T11:35:51;100427.37;;;24.29;65.34
57050;BME280;42935;50.966;16.992;2023-07-28T11:39:13;100430.55;;;24.13;64.08
57050;BME280;42935;50.966;16.992;2023-07-28T11:42:33;100435.84;;;24.43;64.38
57050;BME280;42935;50.966;16.992;2023-07-28T11:45:54;100415.95;;;25.22;63.97
57050;BME280;42935;50.966;16.992;2023-07-28T11:49:18;100425.36;;;25.37;62.76
57050;BME280;42935;50.966;16.992;2023-07-28T11:52:40;100433.38;;;25.38;62.01
57050;BME280;42935;50.966;16.992;2023-07-28T11:56:01;100434.22;;;24.80;62.58
57050;BME280;42935;50.966;16.992;2023-07-28T11:59:47;100425.64;;;24.45;64.06
57050;BME280;42935;50.966;16.992;2023-07-28T12:03:09;100422.21;;;24.86;63.96
57050;BME280;42935;50.966;16.992;2023-07-28T12:06:33;100426.18;;;25.45;64.50
57050;BME280;42935;50.966;16.992;2023-07-28T12:09:53;100428.52;;;25.34;64.29
57050;BME280;42935;50.966;16.992;2023-07-28T12:13:19;100432.23;;;25.69;62.10
57050;BME280;42935;50.966;16.992;2023-07-28T12:16:47;100424.34;;;25.45;61.35
57050;BME280;42935;50.966;16.992;2023-07-28T12:20:04;100427.92;;;26.05;62.41
57050;BME280;42935;50.966;16.992;2023-07-28T12:23:41;100416.07;;;26.04;59.88
57050;BME280;42935;50.966;16.992;2023-07-28T12:27:01;100413.48;;;25.79;62.06
57050;BME280;42935;50.966;16.992;2023-07-28T12:30:17;100429.92;;;24.93;61.98
57050;BME280;42935;50.966;16.992;2023-07-28T12:33:37;100427.50;;;24.76;63.80
57050;BME280;42935;50.966;16.992;2023-07-28T12:36:57;100435.83;;;24.88;63.71
57050;BME280;42935;50.966;16.992;2023-07-28T12:40:16;100429.40;;;24.51;64.27
57050;BME280;42935;50.966;16.992;2023-07-28T12:43:38;100440.02;;;24.53;65.31
57050;BME280;42935;50.966;16.992;2023-07-28T12:46:57;100442.21;;;24.09;66.16
57050;BME280;42935;50.966;16.992;2023-07-28T12:50:17;100434.29;;;24.05;66.34
57050;BME280;42935;50.966;16.992;2023-07-28T12:53:45;100458.99;;;24.18;68.27
57050;BME280;42935;50.966;16.992;2023-07-28T12:57:01;100464.41;;;23.93;79.39
57050;BME280;42935;50.966;16.992;2023-07-28T13:00:25;100455.52;;;24.54;75.30
57050;BME280;42935;50.966;16.992;2023-07-28T13:03:45;100452.04;;;24.96;72.47
57050;BME280;42935;50.966;16.992;2023-07-28T13:07:02;100444.23;;;25.52;66.32
57050;BME280;42935;50.966;16.992;2023-07-28T13:10:22;100451.01;;;25.55;63.65
57050;BME280;42935;50.966;16.992;2023-07-28T13:13:41;100455.79;;;25.20;62.61
57050;BME280;42935;50.966;16.992;2023-07-28T13:17:02;100454.93;;;25.47;62.00
57050;BME280;42935;50.966;16.992;2023-07-28T13:20:18;100451.30;;;25.13;61.41
57050;BME280;42935;50.966;16.992;2023-07-28T13:23:45;100468.30;;;24.82;62.41
57050;BME280;42935;50.966;16.992;2023-07-28T13:27:06;100428.46;;;24.95;61.69
57050;BME280;42935;50.966;16.992;2023-07-28T13:30:27;100471.26;;;25.77;60.84
57050;BME280;42935;50.966;16.992;2023-07-28T13:33:43;100467.85;;;25.42;62.02
57050;BME280;42935;50.966;16.992;2023-07-28T13:37:08;100466.27;;;26.00;60.90
57050;BME280;42935;50.966;16.992;2023-07-28T13:40:27;100484.02;;;26.17;58.68
57050;BME280;42935;50.966;16.992;2023-07-28T13:43:47;100471.87;;;26.63;57.55
57050;BME280;42935;50.966;16.992;2023-07-28T13:47:07;100486.63;;;26.22;59.38
57050;BME280;42935;50.966;16.992;2023-07-28T13:50:27;100476.63;;;26.78;57.76
57050;BME280;42935;50.966;16.992;2023-07-28T13:54:21;100481.42;;;26.46;56.79
57050;BME280;42935;50.966;16.992;2023-07-28T13:57:42;100470.40;;;27.05;55.94
57050;BME280;42935;50.966;16.992;2023-07-28T14:01:04;100477.55;;;27.19;57.67
57050;BME280;42935;50.966;16.992;2023-07-28T14:04:23;100475.32;;;25.78;57.97
57050;BME280;42935;50.966;16.992;2023-07-28T14:07:43;100473.75;;;27.41;56.10
57050;BME280;42935;50.966;16.992;2023-07-28T14:11:04;100469.76;;;27.84;54.01
57050;BME280;42935;50.966;16.992;2023-07-28T14:14:30;100474.13;;;27.38;55.04
57050;BME280;42935;50.966;16.992;2023-07-28T14:17:50;100481.44;;;28.05;54.16
57050;BME280;42935;50.966;16.992;2023-07-28T14:21:06;100479.23;;;28.06;54.08
57050;BME280;42935;50.966;16.992;2023-07-28T14:24:24;100462.42;;;28.28;53.20
57050;BME280;42935;50.966;16.992;2023-07-28T14:27:42;100471.32;;;27.86;53.59
57050;BME280;42935;50.966;16.992;2023-07-28T14:30:59;100489.38;;;26.39;56.28
57050;BME280;42935;50.966;16.992;2023-07-28T14:34:18;100470.74;;;25.82;56.96
57050;BME280;42935;50.966;16.992;2023-07-28T14:37:34;100487.13;;;25.79;57.93
57050;BME280;42935;50.966;16.992;2023-07-28T14:40:52;100481.13;;;25.46;58.29
57050;BME280;42935;50.966;16.992;2023-07-28T14:44:12;100492.96;;;25.44;58.45
57050;BME280;42935;50.966;16.992;2023-07-28T14:47:28;100492.27;;;26.77;56.33
57050;BME280;42935;50.966;16.992;2023-07-28T14:50:48;100482.73;;;27.21;55.18
57050;BME280;42935;50.966;16.992;2023-07-28T14:54:08;100461.78;;;27.41;54.12
57050;BME280;42935;50.966;16.992;2023-07-28T14:57:25;100477.48;;;26.89;55.17
57050;BME280;42935;50.966;16.992;2023-07-28T15:00:43;100487.12;;;26.56;55.57
57050;BME280;42935;50.966;16.992;2023-07-28T15:04:05;100485.23;;;27.92;54.85
57050;BME280;42935;50.966;16.992;2023-07-28T15:07:21;100489.17;;;28.06;51.96
57050;BME280;42935;50.966;16.992;2023-07-28T15:10:39;100481.27;;;28.14;52.18
57050;BME280;42935;50.966;16.992;2023-07-28T15:13:59;100476.30;;;27.94;51.92
57050;BME280;42935;50.966;16.992;2023-07-28T15:17:21;100484.63;;;27.98;51.49
57050;BME280;42935;50.966;16.992;2023-07-28T15:20:41;100505.41;;;27.96;51.28
57050;BME280;42935;50.966;16.992;2023-07-28T15:24:05;100496.79;;;27.99;50.39
57050;BME280;42935;50.966;16.992;2023-07-28T15:27:25;100495.28;;;27.22;51.54
57050;BME280;42935;50.966;16.992;2023-07-28T15:30:44;100489.80;;;27.50;52.36
57050;BME280;42935;50.966;16.992;2023-07-28T15:34:16;100490.38;;;27.44;52.58
57050;BME280;42935;50.966;16.992;2023-07-28T15:37:33;100484.55;;;28.39;51.58
57050;BME280;42935;50.966;16.992;2023-07-28T15:40:55;100493.81;;;28.62;50.71
57050;BME280;42935;50.966;16.992;2023-07-28T15:44:13;100489.79;;;27.87;50.75
57050;BME280;42935;50.966;16.992;2023-07-28T15:47:33;100483.24;;;28.31;51.24
57050;BME280;42935;50.966;16.992;2023-07-28T15:50:51;100484.84;;;28.77;49.28
57050;BME280;42935;50.966;16.992;2023-07-28T15:54:12;100477.52;;;28.52;49.95
57050;BME280;42935;50.966;16.992;2023-07-28T15:57:43;100474.08;;;27.97;50.05
57050;BME280;42935;50.966;16.992;2023-07-28T16:01:00;100473.67;;;28.09;50.02
57050;BME280;42935;50.966;16.992;2023-07-28T16:04:22;100471.02;;;28.37;49.53
57050;BME280;42935;50.966;16.992;2023-07-28T16:07:38;100479.45;;;28.52;49.19
57050;BME280;42935;50.966;16.992;2023-07-28T16:11:01;100478.73;;;28.21;49.47
57050;BME280;42935;50.966;16.992;2023-07-28T16:14:23;100477.52;;;28.43;50.38
57050;BME280;42935;50.966;16.992;2023-07-28T16:17:43;100476.45;;;28.06;50.08
57050;BME280;42935;50.966;16.992;2023-07-28T16:21:05;100498.70;;;28.15;50.29
57050;BME280;42935;50.966;16.992;2023-07-28T16:24:25;100499.21;;;28.16;49.63
57050;BME280;42935;50.966;16.992;2023-07-28T16:27:45;100507.75;;;28.05;49.57
57050;BME280;42935;50.966;16.992;2023-07-28T16:31:09;100502.20;;;28.21;49.58
57050;BME280;42935;50.966;16.992;2023-07-28T16:34:29;100505.08;;;28.34;48.79
57050;BME280;42935;50.966;16.992;2023-07-28T16:37:46;100512.06;;;27.88;49.93
57050;BME280;42935;50.966;16.992;2023-07-28T16:41:01;100514.02;;;27.45;50.46
57050;BME280;42935;50.966;16.992;2023-07-28T16:44:17;100507.98;;;28.45;50.17
57050;BME280;42935;50.966;16.992;2023-07-28T16:47:37;100512.87;;;29.33;49.09
57050;BME280;42935;50.966;16.992;2023-07-28T16:50:57;100513.97;;;29.44;48.68
57050;BME280;42935;50.966;16.992;2023-07-28T16:54:18;100512.82;;;29.42;48.59
57050;BME280;42935;50.966;16.992;2023-07-28T16:57:36;100514.54;;;29.73;47.82
57050;BME280;42935;50.966;16.992;2023-07-28T17:00:57;100526.61;;;29.05;48.62
57050;BME280;42935;50.966;16.992;2023-07-28T17:04:24;100521.94;;;29.28;48.69
57050;BME280;42935;50.966;16.992;2023-07-28T17:08:12;100475.07;;;28.56;48.84
57050;BME280;42935;50.966;16.992;2023-07-28T17:12:03;100534.39;;;29.04;48.47
57050;BME280;42935;50.966;16.992;2023-07-28T17:15:23;100535.81;;;28.65;49.30
57050;BME280;42935;50.966;16.992;2023-07-28T17:18:43;100543.17;;;28.31;50.11
57050;BME280;42935;50.966;16.992;2023-07-28T17:22:06;100520.57;;;27.90;50.56
57050;BME280;42935;50.966;16.992;2023-07-28T17:25:22;100548.51;;;27.95;51.44
57050;BME280;42935;50.966;16.992;2023-07-28T17:28:43;100547.60;;;27.96;51.05
57050;BME280;42935;50.966;16.992;2023-07-28T17:32:01;100555.26;;;27.84;51.53
57050;BME280;42935;50.966;16.992;2023-07-28T17:35:21;100557.91;;;27.06;52.21